Time;durP1;ratioP1;P1;durP2;ratioP2;P2;SDS_P1;SDS_P2;PMS_P1;PMS_P2;Temp;Humidity;BMP_temperature;BMP_pressure;BME280_temperature;BME280_humidity;BME280_pressure;Samples;Min_cycle;Max_cycle;Signal;HPM_P1;HPM_P2
2022/10/07 00:00:52;;;;;;;6.93;1.30;;;;;;;12.60;66.64;101998.69;2074783;28;20042;-71
2022/10/07 00:01:56;;;;;;;6.85;1.13;;;;;;;12.58;66.76;101996.25;2074312;28;20426;-70
2022/10/07 00:03:00;;;;;;;3.67;1.27;;;;;;;12.58;66.78;101996.25;2082587;28;20076;-70
2022/10/07 00:04:08;;;;;;;4.13;1.10;;;;;;;12.59;66.82;101997.06;2082826;28;20052;-71
2022/10/07 00:05:18;;;;;;;4.88;1.08;;;;;;;12.57;66.78;101994.63;2090710;28;20037;-70
2022/10/07 00:06:22;;;;;;;2.40;1.05;;;;;;;12.55;66.74;101994.06;2082747;28;20049;-71
2022/10/07 00:07:28;;;;;;;3.67;1.08;;;;;;;12.55;66.70;101995.94;2074066;28;20049;-71
2022/10/07 00:08:34;;;;;;;3.50;0.85;;;;;;;12.56;66.65;101992.19;2074993;28;20056;-70
2022/10/07 00:09:39;;;;;;;9.00;1.50;;;;;;;12.50;66.78;101988.63;2082815;28;20061;-70
2022/10/07 00:10:46;;;;;;;4.75;1.30;;;;;;;12.50;66.75;101992.13;2082991;28;20040;-70
2022/10/07 00:11:49;;;;;;;3.95;1.05;;;;;;;12.53;66.92;101990.81;2082265;28;20041;-71
2022/10/07 00:12:55;;;;;;;5.72;1.60;;;;;;;12.52;66.86;101989.19;2073747;28;20058;-71
2022/10/07 00:14:03;;;;;;;9.45;1.33;;;;;;;12.52;66.93;101987.31;2082619;28;20037;-71
2022/10/07 00:15:10;;;;;;;3.55;1.10;;;;;;;12.52;66.86;101984.59;2081797;28;20544;-70
2022/10/07 00:16:13;;;;;;;5.88;1.13;;;;;;;12.55;66.81;101990.53;2082467;28;20060;-70
2022/10/07 00:17:16;;;;;;;8.20;1.02;;;;;;;12.51;66.82;101985.69;2082756;28;20381;-71
2022/10/07 00:18:21;;;;;;;6.80;1.20;;;;;;;12.50;66.78;101986.72;2082254;28;20033;-71
2022/10/07 00:19:27;;;;;;;8.30;1.83;;;;;;;12.50;66.94;101988.63;2082134;28;20045;-71
2022/10/07 00:20:42;;;;;;;7.03;1.25;;;;;;;12.46;66.82;101987.50;2081220;28;20416;-70
2022/10/07 00:21:45;;;;;;;3.33;0.95;;;;;;;12.48;66.83;101982.66;2081432;28;20056;-71
2022/10/07 00:22:48;;;;;;;4.35;1.35;;;;;;;12.48;66.99;101996.16;2082273;28;20049;-71
2022/10/07 00:23:53;;;;;;;3.85;1.25;;;;;;;12.49;66.83;101992.41;2074120;28;20053;-70
2022/10/07 00:24:55;;;;;;;6.53;1.30;;;;;;;12.47;67.08;101989.13;2064830;28;20391;-70
2022/10/07 00:26:09;;;;;;;3.47;0.90;;;;;;;12.46;66.80;101987.50;2074111;28;20048;-70
2022/10/07 00:27:11;;;;;;;5.50;1.40;;;;;;;12.45;66.76;101992.09;2073958;28;20034;-71
2022/10/07 00:28:17;;;;;;;3.90;1.55;;;;;;;12.46;66.99;101982.94;2066842;28;20051;-71
2022/10/07 00:29:23;;;;;;;4.47;1.35;;;;;;;12.47;66.82;101994.53;2081761;28;20041;-70
2022/10/07 00:30:27;;;;;;;7.68;1.30;;;;;;;12.46;66.85;101991.03;2082541;28;20040;-70
2022/10/07 00:31:34;;;;;;;3.67;0.98;;;;;;;12.44;66.83;101989.66;2081249;28;20513;-70
2022/10/07 00:32:37;;;;;;;3.85;0.95;;;;;;;12.42;67.03;101991.78;2074142;28;20052;-70
2022/10/07 00:33:47;;;;;;;8.48;1.30;;;;;;;12.41;67.12;101990.16;2074698;28;20053;-71
2022/10/07 00:34:54;;;;;;;6.03;1.08;;;;;;;12.38;67.31;101990.66;2066149;28;20038;-70
2022/10/07 00:36:03;;;;;;;5.00;1.40;;;;;;;12.35;67.27;101985.78;2066156;28;20046;-70
2022/10/07 00:37:06;;;;;;;7.88;1.63;;;;;;;12.37;67.16;101989.03;2074798;28;20034;-70
2022/10/07 00:38:13;;;;;;;3.45;1.40;;;;;;;12.36;67.08;101990.09;2074572;28;20037;-70
2022/10/07 00:39:16;;;;;;;6.57;1.00;;;;;;;12.36;67.33;101992.78;2074295;28;20053;-70
2022/10/07 00:40:24;;;;;;;8.98;1.25;;;;;;;12.36;67.34;101990.09;2082040;28;20045;-70
2022/10/07 00:41:37;;;;;;;6.22;1.27;;;;;;;12.35;67.42;101991.19;2081344;28;20056;-71
2022/10/07 00:42:40;;;;;;;8.25;1.58;;;;;;;12.33;67.33;101982.53;2081325;28;20049;-71
2022/10/07 00:43:44;;;;;;;5.15;1.70;;;;;;;12.34;67.26;101989.56;2073974;28;20434;-71
2022/10/07 00:44:51;;;;;;;4.07;1.38;;;;;;;12.32;67.26;101980.91;2082405;28;20029;-71
2022/10/07 00:46:16;;;;;;;9.07;1.30;;;;;;;12.29;67.33;101988.44;2082127;28;20048;-71
2022/10/07 00:47:22;;;;;;;6.95;1.30;;;;;;;12.26;67.47;101988.94;2074714;28;20157;-71
2022/10/07 00:48:31;;;;;;;5.82;1.42;;;;;;;12.25;67.55;101981.09;2066659;28;20046;-71
2022/10/07 00:49:44;;;;;;;8.07;1.10;;;;;;;12.25;67.53;101976.53;2075245;28;20057;-71
2022/10/07 00:50:50;;;;;;;6.97;1.10;;;;;;;12.22;67.69;101978.91;2080855;28;20060;-70
2022/10/07 00:51:53;;;;;;;5.93;1.20;;;;;;;12.21;67.68;101983.50;2066160;28;20053;-71
2022/10/07 00:53:02;;;;;;;6.93;1.33;;;;;;;12.21;67.65;101980.81;2066312;28;20057;-71
2022/10/07 00:54:13;;;;;;;5.45;1.25;;;;;;;12.20;67.98;101981.88;2060392;28;20038;-71
2022/10/07 00:55:19;;;;;;;8.50;1.17;;;;;;;12.18;67.58;101975.09;2068433;28;20041;-71
2022/10/07 00:56:28;;;;;;;7.03;1.23;;;;;;;12.17;68.09;101977.00;2074082;28;20046;-72
2022/10/07 00:57:35;;;;;;;6.75;1.10;;;;;;;12.17;67.66;101977.00;2081430;28;20052;-71
2022/10/07 00:58:42;;;;;;;12.13;1.10;;;;;;;12.18;67.65;101970.53;2072612;28;20037;-71
2022/10/07 00:59:46;;;;;;;6.85;1.00;;;;;;;12.20;67.79;101971.09;2066630;28;20479;-71
2022/10/07 01:00:54;;;;;;;6.30;1.10;;;;;;;12.19;67.65;101977.53;2066408;28;20514;-71
2022/10/07 01:01:56;;;;;;;4.35;1.23;;;;;;;12.16;67.79;101972.66;2074169;28;20502;-71
2022/10/07 01:03:05;;;;;;;3.47;1.38;;;;;;;12.12;68.06;101968.84;2066374;28;20050;-71
2022/10/07 01:04:09;;;;;;;7.18;1.92;;;;;;;12.14;67.98;101969.41;2067055;28;20053;-70
2022/10/07 01:05:14;;;;;;;5.15;1.10;;;;;;;12.13;67.80;101967.75;2073697;28;20053;-72
2022/10/07 01:06:17;;;;;;;6.00;1.63;;;;;;;12.11;68.24;101967.22;2065286;28;20034;-71
2022/10/07 01:07:20;;;;;;;5.35;1.45;;;;;;;12.08;68.18;101969.63;2065490;28;20034;-70
2022/10/07 01:08:25;;;;;;;3.00;1.55;;;;;;;12.04;68.24;101969.28;2074295;28;20374;-71
2022/10/07 01:09:32;;;;;;;4.53;1.13;;;;;;;12.04;68.08;101958.50;2088397;28;20049;-71
2022/10/07 01:11:12;;;;;;;6.68;1.25;;;;;;;12.05;68.24;101963.66;2082035;28;20042;-71
2022/10/07 01:12:38;;;;;;;2.45;1.02;;;;;;;12.08;68.11;101970.44;2078714;28;20045;-72
2022/10/07 01:13:44;;;;;;;5.65;1.25;;;;;;;12.07;68.13;101963.38;2077266;28;20046;-72
2022/10/07 01:15:06;;;;;;;6.10;1.50;;;;;;;12.06;68.00;101967.16;2074619;28;20045;-72
2022/10/07 01:16:47;;;;;;;5.30;1.60;;;;;;;12.07;68.13;101966.09;2072619;28;20304;-72
2022/10/07 01:18:07;;;;;;;2.65;1.20;;;;;;;12.08;68.13;101962.34;2073843;28;20112;-72
2022/10/07 01:19:43;;;;;;;4.95;1.10;;;;;;;12.06;68.10;101959.06;2067639;28;20057;-71
2022/10/07 01:21:05;;;;;;;7.55;1.50;;;;;;;12.06;68.18;101959.88;2066913;28;20042;-71
2022/10/07 01:22:14;;;;;;;4.95;1.10;;;;;;;12.04;67.96;101955.81;2063112;28;20398;-71
2022/10/07 01:23:32;;;;;;;3.28;1.00;;;;;;;12.07;68.14;101960.69;2073683;28;20276;-71
2022/10/07 01:24:46;;;;;;;6.70;1.30;;;;;;;12.06;67.93;101957.19;2077865;28;20296;-71
2022/10/07 01:26:15;;;;;;;6.68;1.63;;;;;;;12.06;68.25;101953.69;2073840;28;20037;-71
2022/10/07 01:27:26;;;;;;;5.97;1.20;;;;;;;12.06;68.18;101956.38;2082076;28;20068;-70
2022/10/07 01:28:38;;;;;;;5.13;1.63;;;;;;;12.05;68.12;101955.56;2081683;28;20283;-70
2022/10/07 01:29:54;;;;;;;7.85;1.40;;;;;;;12.05;68.33;101954.75;2075439;28;20077;-70
2022/10/07 01:31:05;;;;;;;11.95;1.70;;;;;;;12.06;68.15;101945.59;2075573;28;20054;-72
2022/10/07 01:32:19;;;;;;;9.05;1.55;;;;;;;12.04;68.22;101943.16;2074739;28;20037;-72
2022/10/07 01:33:27;;;;;;;8.07;1.83;;;;;;;12.06;67.98;101959.88;2073612;28;20034;-72
2022/10/07 01:34:33;;;;;;;6.93;1.20;;;;;;;12.03;68.13;101948.78;2082576;28;20048;-71
2022/10/07 01:35:41;;;;;;;5.55;1.60;;;;;;;12.03;68.11;101952.31;2081903;28;20040;-72
2022/10/07 01:36:49;;;;;;;4.25;1.20;;;;;;;12.01;68.05;101954.47;2078169;28;20041;-72
2022/10/07 01:37:59;;;;;;;5.47;1.23;;;;;;;12.02;68.02;101950.69;2074144;28;20058;-71
2022/10/07 01:39:09;;;;;;;7.72;1.30;;;;;;;12.02;67.76;101949.88;2076254;28;20041;-71
2022/10/07 01:40:22;;;;;;;12.05;1.35;;;;;;;11.99;67.97;101947.69;2066417;28;20041;-71
2022/10/07 01:41:30;;;;;;;4.97;1.02;;;;;;;11.96;67.91;101950.88;2075407;28;20291;-71
2022/10/07 01:42:35;;;;;;;4.55;1.13;;;;;;;11.95;67.89;101947.38;2081524;28;20045;-70
2022/10/07 01:43:43;;;;;;;7.05;1.48;;;;;;;11.96;68.22;101945.50;2064261;28;20049;-70
2022/10/07 01:44:50;;;;;;;4.70;0.95;;;;;;;11.94;68.15;101947.63;2066956;28;20046;-70
2022/10/07 01:45:54;;;;;;;4.72;1.48;;;;;;;11.96;68.25;101946.31;2073577;28;20061;-71
2022/10/07 01:46:57;;;;;;;11.20;1.60;;;;;;;11.96;68.21;101948.19;2065860;28;20062;-70
2022/10/07 01:48:00;;;;;;;6.28;1.30;;;;;;;11.95;68.24;101949.28;2073631;28;20062;-71
2022/10/07 01:49:05;;;;;;;6.88;1.17;;;;;;;11.97;68.17;101947.13;2081605;28;20029;-70
2022/10/07 01:50:11;;;;;;;8.48;1.30;;;;;;;11.97;67.90;101947.13;2073562;28;20053;-70
2022/10/07 01:51:23;;;;;;;5.18;1.50;;;;;;;11.96;68.23;101943.63;2065142;28;20041;-70
2022/10/07 01:52:44;;;;;;;7.80;1.50;;;;;;;11.96;68.27;101945.50;2058915;28;20134;-70
2022/10/07 01:54:27;;;;;;;4.65;1.58;;;;;;;11.91;68.40;101946.25;2068506;28;20057;-70
2022/10/07 01:55:48;;;;;;;6.43;1.85;;;;;;;11.92;68.23;101949.78;2076032;28;20037;-70
2022/10/07 01:57:29;;;;;;;5.15;1.63;;;;;;;11.93;68.11;101943.31;2065131;28;20042;-72
2022/10/07 01:58:43;;;;;;;5.25;1.52;;;;;;;11.91;68.14;101938.16;2076754;28;20505;-72
2022/10/07 02:00:11;;;;;;;4.35;1.10;;;;;;;11.94;68.11;101936.84;2067223;28;20050;-72
2022/10/07 02:01:28;;;;;;;6.60;1.40;;;;;;;11.93;68.06;101925.25;2064663;28;20041;-72
2022/10/07 02:02:55;;;;;;;6.72;1.67;;;;;;;11.90;68.46;101928.44;2069276;28;20058;-72
2022/10/07 02:04:11;;;;;;;5.38;1.48;;;;;;;11.91;68.35;101929.25;2076441;28;20473;-72
2022/10/07 02:05:41;;;;;;;5.15;1.20;;;;;;;11.91;68.05;101921.19;2075017;28;20041;-71
2022/10/07 02:06:55;;;;;;;9.52;1.48;;;;;;;11.90;68.35;101931.16;2076138;28;20048;-72
2022/10/07 02:08:24;;;;;;;6.10;1.35;;;;;;;11.90;68.34;101933.03;2060282;28;20039;-71
2022/10/07 02:09:36;;;;;;;3.63;1.13;;;;;;;11.88;68.21;101940.53;2064069;28;20033;-72
2022/10/07 02:10:50;;;;;;;9.30;1.58;;;;;;;11.86;68.46;101934.63;2077683;28;20044;-71
2022/10/07 02:12:07;;;;;;;4.63;1.38;;;;;;;11.86;68.41;101927.34;2081398;28;20040;-71
2022/10/07 02:13:27;;;;;;;4.32;1.10;;;;;;;11.86;68.43;101927.34;2085133;28;20048;-72
2022/10/07 02:15:03;;;;;;;6.82;1.42;;;;;;;11.82;68.29;101924.31;2088910;28;20049;-71
2022/10/07 02:16:07;;;;;;;3.28;1.27;;;;;;;11.83;68.70;101925.94;2077255;28;20041;-71
2022/10/07 02:17:20;;;;;;;4.53;1.33;;;;;;;11.83;68.64;101920.53;2082170;28;20409;-70
2022/10/07 02:18:23;;;;;;;6.20;1.38;;;;;;;11.83;68.48;101917.03;2089300;28;20037;-70
2022/10/07 02:19:34;;;;;;;4.18;1.10;;;;;;;11.82;68.67;101921.63;2081862;28;20037;-70
2022/10/07 02:20:43;;;;;;;4.60;1.33;;;;;;;11.83;68.70;101917.03;2082582;28;20041;-69
2022/10/07 02:21:51;;;;;;;5.75;1.13;;;;;;;11.83;68.52;101917.84;2062085;28;20415;-69
2022/10/07 02:23:01;;;;;;;6.03;1.10;;;;;;;11.83;68.52;101920.53;2060871;28;20557;-69
2022/10/07 02:24:06;;;;;;;10.73;1.10;;;;;;;11.82;68.28;101921.63;2057726;28;20043;-70
2022/10/07 02:25:17;;;;;;;3.95;1.10;;;;;;;11.78;68.25;101923.16;2067558;28;20054;-69
2022/10/07 02:26:23;;;;;;;2.75;1.20;;;;;;;11.80;68.20;101926.44;2080873;28;20041;-69
2022/10/07 02:27:33;;;;;;;3.95;1.00;;;;;;;11.81;68.26;101928.06;2080404;28;20045;-69
2022/10/07 02:28:40;;;;;;;4.55;0.90;;;;;;;11.82;68.44;101929.69;2066192;28;20512;-69
2022/10/07 02:29:50;;;;;;;5.40;1.40;;;;;;;11.81;68.25;101925.34;2074135;28;20046;-70
2022/10/07 02:30:58;;;;;;;5.22;1.00;;;;;;;11.81;68.33;101928.06;2074307;28;20041;-70
2022/10/07 02:32:06;;;;;;;7.93;1.70;;;;;;;11.81;68.42;101922.66;2065722;28;20061;-69
2022/10/07 02:33:11;;;;;;;4.30;1.02;;;;;;;11.82;68.04;101924.31;2064898;28;20518;-69
2022/10/07 02:34:22;;;;;;;7.90;1.30;;;;;;;11.80;68.37;101923.75;2073652;28;20033;-69
2022/10/07 02:35:57;;;;;;;4.90;1.38;;;;;;;11.82;68.08;101926.16;2079063;28;20033;-69
2022/10/07 02:37:06;;;;;;;4.15;1.13;;;;;;;11.83;68.16;101927.81;2075833;28;20033;-69
2022/10/07 02:38:11;;;;;;;9.75;1.20;;;;;;;11.85;68.21;101930.28;2074331;28;20060;-70
2022/10/07 02:39:18;;;;;;;3.42;1.27;;;;;;;11.82;68.01;101932.41;2073726;28;20421;-71
2022/10/07 02:40:28;;;;;;;1.92;0.80;;;;;;;11.82;68.07;101926.16;2082130;28;20038;-70
2022/10/07 02:41:40;;;;;;;;;;;;;;;11.79;68.20;101924.81;2073504;28;20474;-70
2022/10/07 02:42:54;;;;;;;7.63;1.17;;;;;;;11.79;68.16;101930.22;2069192;28;19913;-70
2022/10/07 02:44:08;;;;;;;4.50;1.00;;;;;;;11.78;67.94;101930.44;2074468;28;20390;-70
2022/10/07 02:45:24;;;;;;;9.60;1.13;;;;;;;11.77;68.42;101929.63;2074427;28;20030;-72
2022/10/07 02:46:35;;;;;;;4.00;1.10;;;;;;;11.78;68.38;101936.63;2074646;28;20045;-71
2022/10/07 02:48:00;;;;;;;7.97;1.17;;;;;;;11.78;68.39;101933.13;2074863;28;20049;-72
2022/10/07 02:49:13;;;;;;;6.93;1.25;;;;;;;11.73;68.42;101931.22;2073787;28;20053;-71
2022/10/07 02:50:22;;;;;;;5.35;1.20;;;;;;;11.75;68.18;101929.06;2081582;28;20049;-70
2022/10/07 02:51:35;;;;;;;7.35;1.20;;;;;;;11.74;68.08;101923.94;2079627;28;20045;-71
2022/10/07 02:52:42;;;;;;;5.82;1.17;;;;;;;11.75;68.32;101929.06;2074500;28;20046;-71
2022/10/07 02:53:49;;;;;;;3.67;1.23;;;;;;;11.75;68.33;101929.06;2082643;28;20044;-71
2022/10/07 02:55:06;;;;;;;3.03;1.00;;;;;;;11.75;68.08;101923.66;2080943;28;20049;-71
2022/10/07 02:56:11;;;;;;;7.10;1.35;;;;;;;11.77;68.23;101926.13;2083884;28;20389;-71
2022/10/07 02:57:19;;;;;;;8.73;1.23;;;;;;;11.74;68.17;101926.63;2083217;28;20034;-71
2022/10/07 02:58:28;;;;;;;8.70;1.17;;;;;;;11.75;67.95;101922.88;2089734;28;20041;-71
2022/10/07 02:59:36;;;;;;;6.25;1.13;;;;;;;11.71;68.34;101922.56;2082315;28;20042;-71
2022/10/07 03:00:51;;;;;;;7.93;1.70;;;;;;;11.74;68.07;101922.06;2083764;28;20052;-71
2022/10/07 03:02:01;;;;;;;3.78;1.20;;;;;;;11.71;68.08;101922.56;2083637;28;20037;-71
2022/10/07 03:03:04;;;;;;;4.78;1.10;;;;;;;11.73;68.20;101922.31;2082882;28;20034;-71
2022/10/07 03:04:18;;;;;;;3.58;1.25;;;;;;;11.72;68.34;101926.88;2090473;28;20052;-71
2022/10/07 03:05:21;;;;;;;5.72;1.25;;;;;;;11.69;68.04;101924.69;2082875;28;20104;-71
2022/10/07 03:06:33;;;;;;;3.72;0.88;;;;;;;11.71;68.26;101924.44;2082357;28;20049;-71
2022/10/07 03:07:38;;;;;;;6.07;1.00;;;;;;;11.67;68.11;101916.06;2061578;28;20042;-71
2022/10/07 03:08:43;;;;;;;6.07;1.50;;;;;;;11.69;68.16;101918.47;2065070;28;20042;-71
2022/10/07 03:09:49;;;;;;;6.22;1.45;;;;;;;11.68;68.38;101914.16;2066723;28;20451;-71
2022/10/07 03:10:54;;;;;;;11.10;1.33;;;;;;;11.69;68.33;101919.28;2064929;28;20419;-71
2022/10/07 03:11:57;;;;;;;3.67;0.90;;;;;;;11.69;68.11;101923.88;2065947;28;20045;-71
2022/10/07 03:13:05;;;;;;;7.22;1.20;;;;;;;11.67;68.48;101920.63;2064758;28;20433;-71
2022/10/07 03:14:13;;;;;;;;;;;;;;;11.66;68.25;101919.78;2068248;28;20525;-70
2022/10/07 03:15:16;;;;;;;5.00;1.05;;;;;;;11.65;68.10;101920.06;2065500;28;19914;-71
2022/10/07 03:16:22;;;;;;;9.52;1.42;;;;;;;11.63;68.36;101922.19;2073836;28;20093;-71
2022/10/07 03:17:27;;;;;;;7.15;1.20;;;;;;;11.60;68.40;101918.09;2072904;28;20510;-71
2022/10/07 03:18:30;;;;;;;4.57;1.10;;;;;;;11.60;68.30;101926.19;2064930;28;20065;-71
2022/10/07 03:20:13;;;;;;;6.47;0.93;;;;;;;11.60;68.22;101915.41;2053008;28;20475;-71
2022/10/07 03:21:18;;;;;;;10.55;1.55;;;;;;;11.60;68.45;101926.19;2070295;28;20046;-71
2022/10/07 03:22:26;;;;;;;4.25;1.08;;;;;;;11.60;68.44;101923.50;2076780;28;20501;-71
2022/10/07 03:23:34;;;;;;;3.83;0.93;;;;;;;11.60;68.60;101926.19;2073364;28;20040;-71
2022/10/07 03:24:37;;;;;;;3.65;1.10;;;;;;;11.61;68.73;101917.06;2082385;28;20053;-71
2022/10/07 03:25:42;;;;;;;5.93;1.17;;;;;;;11.59;68.78;101916.50;2088500;28;20452;-71
2022/10/07 03:26:45;;;;;;;5.22;1.42;;;;;;;11.60;68.73;101923.50;2089242;28;20044;-71
2022/10/07 03:27:54;;;;;;;5.22;1.00;;;;;;;11.58;68.60;101923.75;2073121;28;20088;-71
2022/10/07 03:28:57;;;;;;;2.97;1.00;;;;;;;11.57;68.84;101915.94;2082486;28;20034;-71
2022/10/07 03:30:03;;;;;;;4.97;1.27;;;;;;;11.59;68.42;101919.19;2072455;28;20041;-71
2022/10/07 03:31:10;;;;;;;2.85;0.93;;;;;;;11.59;68.38;101920.00;2058367;28;20455;-71
2022/10/07 03:32:21;;;;;;;5.05;1.77;;;;;;;11.59;68.34;101913.78;2076733;28;20037;-71
2022/10/07 03:33:26;;;;;;;5.47;1.13;;;;;;;11.57;68.60;101914.06;2080898;28;20053;-71
2022/10/07 03:34:31;;;;;;;2.72;0.88;;;;;;;11.59;68.39;101919.19;2089464;28;20053;-71
2022/10/07 03:35:34;;;;;;;4.40;1.10;;;;;;;11.58;68.39;101923.75;2088274;28;20044;-70
2022/10/07 03:36:39;;;;;;;4.75;1.17;;;;;;;11.58;68.67;101922.94;2080298;28;20429;-71
2022/10/07 03:37:45;;;;;;;6.00;1.13;;;;;;;11.59;68.28;101919.19;2065029;28;20050;-71
2022/10/07 03:38:55;;;;;;;6.85;1.58;;;;;;;11.55;68.51;101918.06;2074692;28;20494;-71
2022/10/07 03:40:03;;;;;;;5.78;1.20;;;;;;;11.55;68.93;101918.06;2081414;28;20433;-71
2022/10/07 03:41:12;;;;;;;9.40;1.17;;;;;;;11.57;68.41;101924.03;2082069;28;20513;-72
2022/10/07 03:42:17;;;;;;;5.93;1.10;;;;;;;11.56;68.39;101914.31;2081864;28;20029;-71
2022/10/07 03:43:25;;;;;;;4.85;1.40;;;;;;;11.53;68.53;101914.81;2081358;28;20053;-71
2022/10/07 03:44:30;;;;;;;3.53;0.98;;;;;;;11.56;68.54;101919.69;2074274;28;20038;-71
2022/10/07 03:45:43;;;;;;;8.45;1.30;;;;;;;11.56;68.66;101917.00;2075975;28;20437;-71
2022/10/07 03:46:49;;;;;;;6.93;1.20;;;;;;;11.56;68.92;101914.31;2076189;28;20048;-71
2022/10/07 03:47:51;;;;;;;8.70;1.10;;;;;;;11.57;68.58;101910.56;2058508;28;20047;-71
2022/10/07 03:48:57;;;;;;;2.97;1.00;;;;;;;11.56;68.49;101919.69;2075593;28;20068;-71
2022/10/07 03:50:02;;;;;;;7.60;1.10;;;;;;;11.55;68.32;101918.06;2066504;28;20042;-71
2022/10/07 03:51:06;;;;;;;7.28;1.27;;;;;;;11.47;68.79;101915.81;2068007;28;20038;-71
2022/10/07 03:52:13;;;;;;;7.78;1.08;;;;;;;11.49;68.91;101914.50;2082356;28;20041;-71
2022/10/07 03:53:19;;;;;;;4.82;1.50;;;;;;;11.51;68.66;101922.34;2088937;28;20465;-72
2022/10/07 03:54:22;;;;;;;3.30;1.10;;;;;;;11.52;68.72;101915.88;2065092;28;20038;-72
2022/10/07 03:55:28;;;;;;;3.95;1.20;;;;;;;11.52;68.92;101919.38;2059115;28;20061;-69
2022/10/07 03:56:34;;;;;;;4.22;1.30;;;;;;;11.50;68.85;101910.72;2067704;28;20489;-71
2022/10/07 03:57:54;;;;;;;6.70;1.15;;;;;;;11.46;68.81;101923.06;2075327;28;20053;-71
2022/10/07 03:59:01;;;;;;;7.18;1.20;;;;;;;11.46;68.98;101916.88;2065928;28;20042;-72
2022/10/07 04:00:04;;;;;;;4.47;1.65;;;;;;;11.45;68.92;101913.38;2059495;28;20054;-72
2022/10/07 04:01:19;;;;;;;7.53;1.10;;;;;;;11.45;69.07;101913.38;2069326;28;20422;-71
2022/10/07 04:02:29;;;;;;;4.00;1.33;;;;;;;11.44;69.08;101910.91;2082336;28;20509;-70
2022/10/07 04:03:32;;;;;;;5.88;1.63;;;;;;;11.44;68.75;101916.31;2083085;28;20057;-71
2022/10/07 04:04:35;;;;;;;5.07;1.20;;;;;;;11.44;68.79;101911.72;2081910;28;20037;-71
2022/10/07 04:05:58;;;;;;;4.60;1.70;;;;;;;11.45;68.82;101912.56;2074378;28;20049;-70
2022/10/07 04:07:04;;;;;;;5.47;1.25;;;;;;;11.45;69.07;101909.88;2068703;28;20051;-69
2022/10/07 04:08:07;;;;;;;6.85;1.42;;;;;;;11.42;68.64;101907.69;2069018;28;20046;-69
2022/10/07 04:09:12;;;;;;;7.20;1.50;;;;;;;11.41;68.85;101906.03;2065617;28;20054;-69
2022/10/07 04:10:18;;;;;;;12.85;1.45;;;;;;;11.39;68.94;101911.69;2072514;28;20041;-69
2022/10/07 04:11:24;;;;;;;11.23;3.72;;;;;;;11.40;69.10;101909.81;2064370;28;20038;-70
2022/10/07 04:12:31;;;;;;;6.10;1.67;;;;;;;11.39;68.91;101909.00;2065572;28;20038;-70
2022/10/07 04:13:37;;;;;;;5.65;1.50;;;;;;;11.35;69.30;101903.28;2073441;28;20079;-69
2022/10/07 04:14:40;;;;;;;7.88;1.15;;;;;;;11.34;69.01;101901.66;2080794;28;20049;-68
2022/10/07 04:15:48;;;;;;;3.75;1.13;;;;;;;11.33;69.23;101904.59;2080741;28;20045;-70
2022/10/07 04:16:57;;;;;;;;;;;;;;;11.33;69.13;101899.22;2074106;28;20065;-72
2022/10/07 04:18:01;;;;;;;9.45;1.55;;;;;;;11.32;69.06;101903.00;2074154;28;20480;-71
2022/10/07 04:19:06;;;;;;;7.63;1.75;;;;;;;11.28;69.43;101896.44;2073320;28;20547;-71
2022/10/07 04:20:10;;;;;;;7.93;1.05;;;;;;;11.28;69.46;101894.56;2056968;28;20034;-72
2022/10/07 04:21:14;;;;;;;11.50;1.90;;;;;;;11.29;69.30;101901.59;2057480;28;20042;-71
2022/10/07 04:22:16;;;;;;;3.72;1.20;;;;;;;11.28;69.60;101897.25;2063498;28;20046;-72
2022/10/07 04:23:22;;;;;;;6.53;1.27;;;;;;;11.24;69.75;101898.03;2061321;28;20038;-72
2022/10/07 04:24:32;;;;;;;10.70;1.70;;;;;;;11.21;69.55;101891.25;2081265;28;20461;-72
2022/10/07 04:25:44;;;;;;;9.05;1.50;;;;;;;11.20;69.68;101895.03;2071059;28;20042;-72
2022/10/07 04:26:52;;;;;;;5.53;1.20;;;;;;;11.20;69.76;101892.34;2065760;28;20580;-72
2022/10/07 04:27:58;;;;;;;4.63;1.65;;;;;;;11.18;69.70;101893.63;2070123;28;20656;-73
2022/10/07 04:29:05;;;;;;;5.03;1.35;;;;;;;11.14;69.80;101896.81;2077241;28;20045;-73
2022/10/07 04:30:10;;;;;;;6.00;1.30;;;;;;;11.11;69.52;101886.56;2071933;28;20046;-73
2022/10/07 04:31:13;;;;;;;3.42;1.20;;;;;;;11.11;69.62;101891.13;2070982;28;20045;-74
2022/10/07 04:32:21;;;;;;;5.47;1.27;;;;;;;11.12;70.02;101892.75;2076783;28;20350;-74
2022/10/07 04:33:28;;;;;;;6.70;1.38;;;;;;;11.09;69.65;101885.97;2079699;28;20064;-73
2022/10/07 04:34:31;;;;;;;5.68;1.35;;;;;;;11.06;69.54;101883.78;2080666;28;20048;-73
2022/10/07 04:35:39;;;;;;;7.32;1.90;;;;;;;11.04;69.84;101891.31;2079686;28;20045;-72
2022/10/07 04:36:45;;;;;;;5.55;1.20;;;;;;;11.05;69.37;101892.13;2080540;28;20296;-73
2022/10/07 04:37:54;;;;;;;5.55;1.35;;;;;;;11.03;69.84;101895.06;2060817;28;20281;-72
2022/10/07 04:39:00;;;;;;;5.60;1.33;;;;;;;11.02;69.52;101889.94;2059162;28;20039;-72
2022/10/07 04:40:11;;;;;;;2.53;1.10;;;;;;;11.00;69.79;101892.03;2064000;28;20042;-72
2022/10/07 04:41:18;;;;;;;5.82;1.60;;;;;;;11.01;69.53;101901.78;2064793;28;20727;-71
2022/10/07 04:43:44;;;;;;;8.60;1.17;;;;;;;11.00;69.93;101895.56;2079290;28;20037;-72
2022/10/07 04:44:49;;;;;;;6.30;1.40;;;;;;;10.96;70.09;101890.94;2063457;28;20065;-72
2022/10/07 04:45:59;;;;;;;7.97;1.83;;;;;;;10.98;69.80;101895.00;2072282;28;20042;-73
2022/10/07 04:47:09;;;;;;;7.07;1.70;;;;;;;10.99;69.80;101893.13;2071364;28;20438;-73
2022/10/07 04:48:18;;;;;;;6.40;1.40;;;;;;;10.81;70.36;101897.72;2073266;28;20072;-71
2022/10/07 04:49:20;;;;;;;4.32;1.50;;;;;;;10.90;70.43;101900.78;2070755;28;20391;-73
2022/10/07 04:50:22;;;;;;;5.88;1.58;;;;;;;10.92;69.88;101884.41;2063395;28;20057;-72
2022/10/07 04:51:24;;;;;;;4.22;1.33;;;;;;;10.94;69.94;101890.34;2071562;28;20143;-73
2022/10/07 04:52:30;;;;;;;5.88;1.58;;;;;;;10.97;70.27;101889.84;2071548;28;20034;-73
2022/10/07 04:53:36;;;;;;;2.70;1.30;;;;;;;10.97;69.82;101895.22;2078806;28;20045;-73
2022/10/07 04:54:39;;;;;;;5.35;1.35;;;;;;;10.98;70.22;101891.50;2071396;28;20292;-73
2022/10/07 04:55:45;;;;;;;1.98;1.20;;;;;;;10.99;70.07;101903.88;2063612;28;20045;-74
2022/10/07 04:57:08;;;;;;;7.70;1.45;;;;;;;10.99;69.45;101898.50;2072486;28;20663;-73
2022/10/07 04:58:19;;;;;;;4.35;1.10;;;;;;;10.99;69.92;101904.69;2066658;28;20041;-72
2022/10/07 04:59:27;;;;;;;3.38;1.20;;;;;;;11.01;69.65;101896.38;2070407;28;20034;-72
2022/10/07 05:00:30;;;;;;;3.90;1.70;;;;;;;11.02;69.57;101908.78;2072408;28;20115;-72
2022/10/07 05:01:35;;;;;;;3.55;1.70;;;;;;;11.04;69.87;101895.88;2075484;28;20042;-71
2022/10/07 05:02:37;;;;;;;4.93;1.80;;;;;;;11.05;69.60;101902.88;2066629;28;20038;-73
2022/10/07 05:03:40;;;;;;;7.68;2.40;;;;;;;11.07;69.27;101898.09;2063997;28;20860;-73
2022/10/07 05:04:44;;;;;;;10.18;2.63;;;;;;;11.08;69.48;101902.41;2071416;28;20057;-72
2022/10/07 05:05:51;;;;;;;3.40;1.38;;;;;;;11.08;69.33;101902.41;2063870;28;20069;-73
2022/10/07 05:06:59;;;;;;;5.72;1.70;;;;;;;11.08;69.59;101902.41;2058797;28;20043;-73
2022/10/07 05:08:06;;;;;;;6.18;1.40;;;;;;;11.11;69.35;101896.50;2064754;28;20482;-76
2022/10/07 05:09:13;;;;;;;9.13;2.00;;;;;;;11.11;69.17;101901.91;2080584;28;20041;-72
2022/10/07 05:10:19;;;;;;;9.93;1.92;;;;;;;11.12;69.07;101898.94;2081047;28;20685;-73
2022/10/07 05:11:24;;;;;;;8.43;2.00;;;;;;;11.07;69.04;101890.81;2072142;28;20315;-72
2022/10/07 05:12:36;;;;;;;4.20;1.48;;;;;;;11.09;69.12;101901.31;2075267;28;20046;-73
2022/10/07 05:13:38;;;;;;;7.65;1.70;;;;;;;11.09;69.21;101898.63;2072448;28;20052;-73
2022/10/07 05:14:45;;;;;;;10.38;1.92;;;;;;;11.03;69.18;101900.44;2080732;28;20048;-73
2022/10/07 05:15:53;;;;;;;8.50;1.50;;;;;;;11.08;68.95;101897.81;2072546;28;20045;-72
2022/10/07 05:16:55;;;;;;;5.53;1.60;;;;;;;11.13;69.08;101899.78;2073675;28;20037;-72
2022/10/07 05:18:02;;;;;;;5.22;1.63;;;;;;;11.08;69.33;101895.13;2080356;28;20283;-72
2022/10/07 05:19:09;;;;;;;6.50;1.73;;;;;;;11.16;69.33;101896.59;2072217;28;20037;-71
2022/10/07 05:20:14;;;;;;;8.90;2.10;;;;;;;11.19;69.28;101897.94;2056295;28;20035;-72
2022/10/07 05:21:22;;;;;;;5.90;1.60;;;;;;;11.20;69.16;101895.03;2073056;28;20053;-72
2022/10/07 05:22:30;;;;;;;10.50;1.92;;;;;;;11.23;68.83;101893.72;2087981;28;20527;-72